Time;durP1;ratioP1;P1;durP2;ratioP2;P2;SDS_P1;SDS_P2;PMS_P1;PMS_P2;Temp;Humidity;BMP_temperature;BMP_pressure;BME280_temperature;BME280_humidity;BME280_pressure;Samples;Min_cycle;Max_cycle;Signal;HPM_P1;HPM_P2
2024/02/22 00:01:21;;;;;;;7.13;6.13;;;;;;;;;;5114464;28;20266;-29
2024/02/22 00:03:46;;;;;;;8.15;6.45;;;;;;;;;;5113878;28;20051;-29
2024/02/22 00:06:11;;;;;;;8.55;6.43;;;;;;;;;;5113909;28;20031;-28
2024/02/22 00:08:39;;;;;;;8.10;6.30;;;;;;;;;;5114147;28;20076;-29
2024/02/22 00:11:04;;;;;;;9.02;6.47;;;;;;;;;;5114313;28;20494;-28
2024/02/22 00:13:29;;;;;;;8.30;6.53;;;;;;;;;;5114123;28;20016;-28
2024/02/22 00:15:55;;;;;;;7.85;6.38;;;;;;;;;;5113807;28;20024;-29
2024/02/22 00:18:21;;;;;;;11.38;7.03;;;;;;;;;;5114336;28;20455;-29
2024/02/22 00:20:46;;;;;;;7.95;6.38;;;;;;;;;;5113750;28;20095;-28
2024/02/22 00:23:11;;;;;;;8.47;6.43;;;;;;;;;;5113767;28;20032;-29
2024/02/22 00:25:36;;;;;;;7.47;6.10;;;;;;;;;;5113505;28;20830;-29
2024/02/22 00:28:02;;;;;;;7.57;5.97;;;;;;;;;;5113623;28;20016;-29
2024/02/22 00:30:27;;;;;;;7.25;6.13;;;;;;;;;;5113898;28;20008;-28
2024/02/22 00:32:52;;;;;;;8.93;6.22;;;;;;;;;;5113917;28;20050;-28
2024/02/22 00:35:18;;;;;;;7.75;6.18;;;;;;;;;;5113929;28;20028;-29
2024/02/22 00:37:43;;;;;;;6.63;5.63;;;;;;;;;;5113607;28;20016;-29
2024/02/22 00:40:17;;;;;;;7.35;5.47;;;;;;;;;;5113556;28;20020;-29
2024/02/22 00:42:43;;;;;;;6.88;5.55;;;;;;;;;;5098748;28;20020;-29
2024/02/22 00:45:09;;;;;;;7.53;5.55;;;;;;;;;;5117857;28;20038;-29
2024/02/22 00:47:34;;;;;;;6.55;5.25;;;;;;;;;;5117443;28;20394;-29
2024/02/22 00:50:00;;;;;;;6.18;5.13;;;;;;;;;;5117756;28;20019;-28
2024/02/22 00:52:25;;;;;;;7.50;5.80;;;;;;;;;;5117481;28;20470;-29
2024/02/22 00:54:50;;;;;;;6.05;5.00;;;;;;;;;;5099152;28;20305;-29
2024/02/22 00:57:16;;;;;;;6.45;5.10;;;;;;;;;;5099149;28;20051;-30
2024/02/22 00:59:41;;;;;;;6.78;5.38;;;;;;;;;;5117129;28;20016;-29
2024/02/22 01:02:07;;;;;;;6.03;4.83;;;;;;;;;;5116945;28;20015;-29
2024/02/22 01:04:32;;;;;;;7.45;5.18;;;;;;;;;;5115927;28;20329;-29
2024/02/22 01:06:58;;;;;;;6.13;5.07;;;;;;;;;;5116813;28;20008;-29
2024/02/22 01:09:23;;;;;;;6.13;4.75;;;;;;;;;;5116688;28;20012;-29
2024/02/22 01:11:49;;;;;;;5.97;4.68;;;;;;;;;;5116550;28;20018;-29
2024/02/22 01:14:14;;;;;;;6.40;5.00;;;;;;;;;;5117017;28;20019;-29
2024/02/22 01:16:39;;;;;;;6.20;4.55;;;;;;;;;;5117611;28;20020;-29
2024/02/22 01:19:05;;;;;;;6.00;4.50;;;;;;;;;;5117049;28;20447;-29
2024/02/22 01:21:30;;;;;;;7.03;5.13;;;;;;;;;;5117026;28;20260;-29
2024/02/22 01:23:56;;;;;;;5.90;4.53;;;;;;;;;;5117350;28;20020;-29
2024/02/22 01:26:21;;;;;;;6.15;4.70;;;;;;;;;;5116905;28;20455;-30
2024/02/22 01:28:47;;;;;;;8.85;4.65;;;;;;;;;;5117055;28;20023;-29
2024/02/22 01:31:12;;;;;;;6.20;4.50;;;;;;;;;;5116828;28;20351;-29
2024/02/22 01:33:37;;;;;;;6.33;4.50;;;;;;;;;;5116767;28;20027;-30
2024/02/22 01:36:03;;;;;;;6.00;4.10;;;;;;;;;;5117205;28;20257;-29
2024/02/22 01:38:28;;;;;;;5.50;4.10;;;;;;;;;;5116507;28;20268;-29
2024/02/22 01:40:53;;;;;;;5.70;4.03;;;;;;;;;;5117189;28;20020;-29
2024/02/22 01:43:18;;;;;;;5.63;4.20;;;;;;;;;;5098251;28;20019;-29
2024/02/22 01:45:43;;;;;;;5.57;4.20;;;;;;;;;;5116410;28;20047;-29
2024/02/22 01:48:09;;;;;;;6.43;3.95;;;;;;;;;;5116689;28;20011;-29
2024/02/22 01:50:35;;;;;;;6.40;4.50;;;;;;;;;;5116374;28;20068;-29
2024/02/22 01:53:01;;;;;;;7.53;4.97;;;;;;;;;;5115664;28;20020;-29
2024/02/22 01:55:26;;;;;;;5.85;4.22;;;;;;;;;;5116810;28;20030;-30
2024/02/22 01:57:52;;;;;;;7.18;4.75;;;;;;;;;;5116827;28;20046;-30
2024/02/22 02:00:17;;;;;;;5.85;4.28;;;;;;;;;;5116440;28;20103;-30
2024/02/22 02:02:43;;;;;;;6.65;4.85;;;;;;;;;;5116113;28;20368;-29
2024/02/22 02:05:08;;;;;;;6.03;4.55;;;;;;;;;;5115755;28;20040;-29
2024/02/22 02:07:36;;;;;;;7.77;4.83;;;;;;;;;;5116614;28;20157;-29
2024/02/22 02:10:03;;;;;;;6.85;4.93;;;;;;;;;;5116281;28;20613;-29
2024/02/22 02:12:29;;;;;;;7.25;4.93;;;;;;;;;;5115857;28;20019;-30
2024/02/22 02:14:56;;;;;;;10.43;4.72;;;;;;;;;;5115926;28;20027;-30
2024/02/22 02:17:21;;;;;;;8.73;5.13;;;;;;;;;;5116115;28;20023;-29
2024/02/22 02:19:47;;;;;;;9.80;5.27;;;;;;;;;;5115865;28;20092;-29
2024/02/22 02:22:15;;;;;;;9.32;5.40;;;;;;;;;;5115813;28;20341;-29
2024/02/22 02:24:52;;;;;;;7.80;5.63;;;;;;;;;;5115713;28;20028;-29
2024/02/22 02:27:17;;;;;;;10.05;4.95;;;;;;;;;;5115674;28;20023;-29
2024/02/22 02:29:44;;;;;;;10.02;5.18;;;;;;;;;;5115909;28;20016;-29
2024/02/22 02:32:09;;;;;;;10.88;5.03;;;;;;;;;;5115608;28;20012;-30
2024/02/22 02:34:34;;;;;;;15.47;5.67;;;;;;;;;;5097256;28;20027;-30
2024/02/22 02:36:59;;;;;;;12.73;5.20;;;;;;;;;;5115541;28;20245;-29
2024/02/22 02:39:24;;;;;;;18.33;5.38;;;;;;;;;;5115732;28;20268;-29
2024/02/22 02:41:51;;;;;;;15.97;5.90;;;;;;;;;;5115405;28;20027;-30
2024/02/22 02:44:16;;;;;;;22.35;5.18;;;;;;;;;;5115491;28;20285;-29
2024/02/22 02:46:41;;;;;;;21.37;5.30;;;;;;;;;;5115303;28;20111;-29
2024/02/22 02:49:06;;;;;;;21.77;5.37;;;;;;;;;;5115786;28;20237;-29
2024/02/22 02:51:32;;;;;;;22.90;5.10;;;;;;;;;;5115248;28;20245;-30
2024/02/22 02:53:57;;;;;;;28.90;5.28;;;;;;;;;;5115659;28;20242;-29
2024/02/22 02:56:22;;;;;;;27.83;4.93;;;;;;;;;;5115046;28;20016;-29
2024/02/22 02:58:47;;;;;;;27.70;5.87;;;;;;;;;;5115094;28;20249;-29
2024/02/22 03:01:13;;;;;;;24.40;5.72;;;;;;;;;;5115056;28;20241;-29
2024/02/22 03:03:38;;;;;;;31.47;5.17;;;;;;;;;;5114822;28;20111;-29
2024/02/22 03:06:03;;;;;;;31.07;4.63;;;;;;;;;;5114444;28;20269;-30
2024/02/22 03:08:29;;;;;;;35.03;4.80;;;;;;;;;;5115140;28;20285;-29
2024/02/22 03:10:54;;;;;;;37.80;5.18;;;;;;;;;;5114756;28;20035;-29
2024/02/22 03:13:21;;;;;;;34.63;5.00;;;;;;;;;;5114790;28;20008;-29
2024/02/22 03:15:48;;;;;;;35.10;5.68;;;;;;;;;;5114711;28;20026;-29
2024/02/22 03:18:13;;;;;;;35.30;5.05;;;;;;;;;;5114967;28;20015;-29
2024/02/22 03:20:39;;;;;;;37.55;6.30;;;;;;;;;;5096447;28;20094;-30
2024/02/22 03:23:04;;;;;;;35.20;5.32;;;;;;;;;;5114685;28;20478;-29
2024/02/22 03:25:29;;;;;;;36.30;4.67;;;;;;;;;;5114516;28;20099;-29
2024/02/22 03:27:58;;;;;;;34.15;5.00;;;;;;;;;;5115080;28;20249;-30
2024/02/22 03:30:24;;;;;;;35.13;4.88;;;;;;;;;;5096254;28;20100;-29
2024/02/22 03:32:49;;;;;;;40.53;4.78;;;;;;;;;;5114407;28;20458;-29
2024/02/22 03:35:14;;;;;;;32.80;4.88;;;;;;;;;;5114616;28;20374;-29
2024/02/22 03:37:39;;;;;;;36.50;4.57;;;;;;;;;;5114273;28;20522;-29
2024/02/22 03:40:08;;;;;;;39.47;5.82;;;;;;;;;;5114875;28;20019;-29
2024/02/22 03:42:33;;;;;;;42.42;4.50;;;;;;;;;;5114583;28;20458;-29
2024/02/22 03:44:59;;;;;;;31.38;4.22;;;;;;;;;;5114433;28;20099;-29
2024/02/22 03:47:24;;;;;;;31.33;4.55;;;;;;;;;;5114279;28;20023;-29
2024/02/22 03:49:49;;;;;;;37.95;4.78;;;;;;;;;;5114119;28;20057;-29
2024/02/22 03:52:14;;;;;;;33.00;4.60;;;;;;;;;;5114696;28;20012;-29
2024/02/22 03:54:40;;;;;;;31.85;4.47;;;;;;;;;;5114396;28;20645;-29
2024/02/22 03:57:05;;;;;;;26.75;4.47;;;;;;;;;;5114368;28;20027;-29
2024/02/22 03:59:30;;;;;;;29.58;4.63;;;;;;;;;;5114331;28;20019;-29
2024/02/22 04:01:56;;;;;;;33.95;4.38;;;;;;;;;;5114038;28;20023;-29
2024/02/22 04:04:21;;;;;;;34.10;4.75;;;;;;;;;;5113724;28;20079;-29
2024/02/22 04:06:46;;;;;;;24.83;3.92;;;;;;;;;;5114520;28;20023;-29
2024/02/22 04:09:11;;;;;;;29.57;4.43;;;;;;;;;;5113939;28;20077;-29
2024/02/22 04:11:37;;;;;;;40.00;4.88;;;;;;;;;;5113800;28;20344;-29
2024/02/22 04:14:02;;;;;;;40.38;5.72;;;;;;;;;;5113710;28;20065;-29
2024/02/22 04:16:27;;;;;;;41.47;4.43;;;;;;;;;;5113609;28;20065;-29
2024/02/22 04:18:52;;;;;;;36.33;4.50;;;;;;;;;;5113871;28;20076;-29
2024/02/22 04:21:17;;;;;;;39.20;5.10;;;;;;;;;;5113822;28;20272;-29
2024/02/22 04:23:42;;;;;;;38.27;5.20;;;;;;;;;;5114378;28;20332;-30
2024/02/22 04:26:08;;;;;;;37.93;4.80;;;;;;;;;;5113647;28;20769;-29
2024/02/22 04:28:33;;;;;;;31.45;5.07;;;;;;;;;;5113718;28;20293;-29
2024/02/22 04:30:58;;;;;;;39.80;5.57;;;;;;;;;;5114261;28;20020;-29
2024/02/22 04:33:23;;;;;;;29.13;4.40;;;;;;;;;;5113725;28;20016;-29
2024/02/22 04:35:48;;;;;;;26.20;4.30;;;;;;;;;;5113874;28;20261;-30
2024/02/22 04:38:14;;;;;;;34.87;4.90;;;;;;;;;;5113648;28;20084;-29
2024/02/22 04:40:39;;;;;;;31.10;5.57;;;;;;;;;;5114168;28;20252;-30
2024/02/22 04:43:04;;;;;;;40.42;5.75;;;;;;;;;;5113862;28;20046;-30
2024/02/22 04:45:30;;;;;;;33.35;5.32;;;;;;;;;;5113519;28;20027;-29
2024/02/22 04:47:56;;;;;;;40.25;6.15;;;;;;;;;;5114109;28;20027;-29
2024/02/22 04:50:21;;;;;;;33.60;5.25;;;;;;;;;;5113547;28;20485;-29
2024/02/22 04:52:46;;;;;;;37.23;5.07;;;;;;;;;;5113566;28;20015;-29
2024/02/22 04:55:11;;;;;;;31.35;5.97;;;;;;;;;;5113732;28;20245;-30
2024/02/22 04:57:37;;;;;;;38.17;6.25;;;;;;;;;;5113778;28;20050;-29
2024/02/22 05:00:04;;;;;;;48.00;7.90;;;;;;;;;;5113987;28;20100;-36
2024/02/22 05:02:30;;;;;;;47.60;5.85;;;;;;;;;;5113756;28;20028;-29
2024/02/22 05:04:55;;;;;;;38.43;6.00;;;;;;;;;;5113258;28;20165;-29
2024/02/22 05:07:21;;;;;;;41.60;5.50;;;;;;;;;;5113453;28;20497;-29
2024/02/22 05:09:47;;;;;;;45.35;5.90;;;;;;;;;;5113878;28;20041;-29
2024/02/22 05:12:12;;;;;;;38.88;5.43;;;;;;;;;;5113290;28;20502;-29
2024/02/22 05:14:37;;;;;;;38.58;6.63;;;;;;;;;;5113392;28;20031;-29
2024/02/22 05:17:02;;;;;;;40.03;6.22;;;;;;;;;;5113531;28;20012;-29
2024/02/22 05:19:27;;;;;;;38.38;6.30;;;;;;;;;;5113307;28;20020;-29
2024/02/22 05:21:53;;;;;;;36.00;6.70;;;;;;;;;;5095014;28;20016;-29
2024/02/22 05:24:18;;;;;;;33.22;5.38;;;;;;;;;;5113434;28;20280;-29
2024/02/22 05:26:43;;;;;;;35.22;6.00;;;;;;;;;;5113225;28;20457;-29
2024/02/22 05:29:08;;;;;;;35.70;5.80;;;;;;;;;;5115983;28;20024;-29
2024/02/22 05:31:34;;;;;;;42.78;5.90;;;;;;;;;;5116786;28;20023;-29
2024/02/22 05:33:59;;;;;;;44.85;6.45;;;;;;;;;;5117024;28;20012;-29
2024/02/22 05:36:24;;;;;;;48.00;6.10;;;;;;;;;;5117040;28;20494;-29
2024/02/22 05:38:49;;;;;;;36.75;7.55;;;;;;;;;;5116944;28;20250;-29
2024/02/22 05:41:15;;;;;;;31.67;5.13;;;;;;;;;;5116658;28;20482;-29
2024/02/22 05:43:40;;;;;;;35.45;5.57;;;;;;;;;;5116642;28;20011;-32
2024/02/22 05:46:05;;;;;;;29.73;5.22;;;;;;;;;;5116612;28;20020;-29
2024/02/22 05:48:31;;;;;;;34.35;5.72;;;;;;;;;;5116465;28;20022;-29
2024/02/22 05:50:56;;;;;;;35.97;5.43;;;;;;;;;;5116454;28;20015;-29
2024/02/22 05:53:22;;;;;;;40.20;5.53;;;;;;;;;;5116673;28;20288;-29
2024/02/22 05:55:47;;;;;;;44.85;5.80;;;;;;;;;;5116374;28;20016;-29
2024/02/22 05:58:13;;;;;;;29.63;4.70;;;;;;;;;;5116604;28;20019;-29
2024/02/22 06:00:40;;;;;;;37.55;5.75;;;;;;;;;;5116518;28;20261;-29
2024/02/22 06:03:05;;;;;;;34.97;5.45;;;;;;;;;;5097789;28;20023;-29
2024/02/22 06:05:31;;;;;;;33.60;5.65;;;;;;;;;;5116048;28;20126;-29
2024/02/22 06:07:56;;;;;;;40.53;6.00;;;;;;;;;;5116398;28;20149;-29
2024/02/22 06:10:21;;;;;;;30.70;5.53;;;;;;;;;;5115964;28;20352;-29
2024/02/22 06:12:46;;;;;;;38.67;5.93;;;;;;;;;;5115970;28;20330;-29
2024/02/22 06:15:12;;;;;;;37.50;5.20;;;;;;;;;;5117080;28;20027;-29
2024/02/22 06:17:37;;;;;;;42.20;5.83;;;;;;;;;;5116459;28;20035;-29
2024/02/22 06:20:08;;;;;;;34.05;5.07;;;;;;;;;;5116085;28;20254;-29
2024/02/22 06:22:33;;;;;;;35.38;5.63;;;;;;;;;;5115860;28;20486;-29
2024/02/22 06:24:58;;;;;;;41.75;6.13;;;;;;;;;;5115642;28;20016;-29
2024/02/22 06:27:23;;;;;;;37.57;5.80;;;;;;;;;;5115761;28;20020;-29
2024/02/22 06:29:49;;;;;;;32.40;5.25;;;;;;;;;;5115646;28;20245;-29
2024/02/22 06:32:14;;;;;;;44.47;5.65;;;;;;;;;;5115655;28;20023;-29
2024/02/22 06:34:39;;;;;;;38.55;5.22;;;;;;;;;;5115827;28;20436;-30
2024/02/22 06:37:05;;;;;;;39.92;5.28;;;;;;;;;;5115579;28;20019;-29
2024/02/22 06:39:30;;;;;;;37.13;5.65;;;;;;;;;;5115389;28;20094;-29
2024/02/22 06:41:55;;;;;;;29.27;5.03;;;;;;;;;;5116001;28;20024;-29
2024/02/22 06:44:20;;;;;;;35.80;5.72;;;;;;;;;;5115276;28;20257;-29
2024/02/22 06:46:46;;;;;;;32.20;4.90;;;;;;;;;;5115316;28;20016;-29
2024/02/22 06:49:14;;;;;;;34.97;4.55;;;;;;;;;;5115468;28;20738;-29
2024/02/22 06:51:40;;;;;;;32.13;4.90;;;;;;;;;;5115145;28;20027;-30
2024/02/22 06:54:05;;;;;;;32.40;4.68;;;;;;;;;;5115411;28;20024;-29
2024/02/22 06:56:31;;;;;;;28.98;3.75;;;;;;;;;;5115051;28;20099;-29
2024/02/22 06:58:56;;;;;;;30.50;4.57;;;;;;;;;;5115286;28;20012;-29
2024/02/22 07:01:22;;;;;;;36.93;4.10;;;;;;;;;;5115038;28;20542;-29
2024/02/22 07:03:47;;;;;;;40.30;4.83;;;;;;;;;;5114781;28;20381;-30
2024/02/22 07:06:12;;;;;;;29.50;3.50;;;;;;;;;;5114910;28;20336;-29
2024/02/22 07:08:38;;;;;;;32.53;4.60;;;;;;;;;;5115166;28;20261;-29
2024/02/22 07:11:04;;;;;;;33.90;3.85;;;;;;;;;;5114691;28;20019;-29
2024/02/22 07:13:31;;;;;;;25.15;3.92;;;;;;;;;;5115029;28;20012;-29
2024/02/22 07:15:57;;;;;;;27.48;4.40;;;;;;;;;;5114722;28;20016;-29
2024/02/22 07:18:22;;;;;;;35.07;4.33;;;;;;;;;;5115230;28;20023;-31
2024/02/22 07:20:47;;;;;;;29.00;3.80;;;;;;;;;;5114913;28;20345;-29
2024/02/22 07:23:12;;;;;;;28.00;4.15;;;;;;;;;;5114630;28;20269;-29
2024/02/22 07:25:37;;;;;;;31.38;5.00;;;;;;;;;;5114437;28;20042;-29
2024/02/22 07:28:03;;;;;;;33.53;4.68;;;;;;;;;;5114742;28;20016;-29
2024/02/22 07:30:28;;;;;;;34.40;5.43;;;;;;;;;;5114768;28;20534;-29
2024/02/22 07:32:53;;;;;;;24.83;5.57;;;;;;;;;;5115022;28;20018;-29
2024/02/22 07:35:19;;;;;;;34.43;7.17;;;;;;;;;;5114215;28;20256;-29
2024/02/22 07:37:44;;;;;;;30.20;5.75;;;;;;;;;;5113899;28;20280;-29
2024/02/22 07:40:10;;;;;;;36.97;7.13;;;;;;;;;;5113842;28;20106;-29
2024/02/22 07:42:36;;;;;;;33.90;6.43;;;;;;;;;;5113659;28;20273;-29
2024/02/22 07:45:01;;;;;;;29.55;5.85;;;;;;;;;;5113937;28;20064;-30
2024/02/22 07:47:26;;;;;;;26.77;6.35;;;;;;;;;;5113970;28;20451;-31
2024/02/22 07:49:51;;;;;;;25.23;5.50;;;;;;;;;;5113952;28;20019;-29
2024/02/22 07:52:17;;;;;;;31.85;6.43;;;;;;;;;;5113756;28;20558;-29
2024/02/22 07:54:42;;;;;;;24.20;5.13;;;;;;;;;;5114151;28;20503;-29
2024/02/22 07:57:07;;;;;;;27.48;5.53;;;;;;;;;;5114289;28;20282;-30
2024/02/22 07:59:32;;;;;;;36.83;5.80;;;;;;;;;;5114603;28;20379;-29
2024/02/22 08:01:58;;;;;;;26.70;5.37;;;;;;;;;;5113965;28;20080;-29
2024/02/22 08:04:26;;;;;;;34.13;6.23;;;;;;;;;;5114232;28;20384;-29
2024/02/22 08:06:51;;;;;;;31.42;6.53;;;;;;;;;;5113810;28;20269;-29
2024/02/22 08:09:17;;;;;;;30.67;5.95;;;;;;;;;;5114123;28;20069;-29
2024/02/22 08:11:42;;;;;;;22.25;5.85;;;;;;;;;;5114389;28;20011;-29
2024/02/22 08:14:08;;;;;;;27.23;6.20;;;;;;;;;;5113875;28;20043;-29
2024/02/22 08:16:33;;;;;;;26.85;6.07;;;;;;;;;;5113988;28;20027;-29
2024/02/22 08:18:58;;;;;;;25.47;6.53;;;;;;;;;;5113747;28;20088;-29
2024/02/22 08:21:23;;;;;;;28.30;6.97;;;;;;;;;;5114373;28;20241;-30
2024/02/22 08:23:55;;;;;;;34.07;8.30;;;;;;;;;;5113792;28;20252;-29
2024/02/22 08:26:20;;;;;;;32.05;9.73;;;;;;;;;;5113893;28;20865;-30
2024/02/22 08:28:46;;;;;;;35.28;10.05;;;;;;;;;;5113983;28;20019;-29
2024/02/22 08:31:11;;;;;;;27.45;10.18;;;;;;;;;;5114004;28;20020;-29
2024/02/22 08:33:36;;;;;;;35.07;11.40;;;;;;;;;;5113635;28;20026;-29
2024/02/22 08:36:02;;;;;;;32.30;12.60;;;;;;;;;;5114228;28;20241;-30
2024/02/22 08:38:27;;;;;;;32.17;12.85;;;;;;;;;;5113624;28;20332;-29
2024/02/22 08:40:52;;;;;;;30.38;13.82;;;;;;;;;;5113620;28;20103;-29
2024/02/22 08:43:17;;;;;;;30.97;13.60;;;;;;;;;;5113522;28;20020;-29
2024/02/22 08:45:42;;;;;;;31.67;13.70;;;;;;;;;;5113449;28;20291;-29
2024/02/22 08:48:08;;;;;;;32.47;14.27;;;;;;;;;;5113451;28;20015;-29
2024/02/22 08:50:34;;;;;;;34.67;14.80;;;;;;;;;;5095120;28;20260;-28
2024/02/22 08:52:59;;;;;;;28.67;13.57;;;;;;;;;;5113419;28;20015;-28
2024/02/22 08:55:27;;;;;;;30.52;13.95;;;;;;;;;;5113716;28;20116;-29
2024/02/22 08:57:52;;;;;;;30.02;12.85;;;;;;;;;;5113970;28;20020;-29
2024/02/22 09:00:19;;;;;;;26.23;13.52;;;;;;;;;;5113623;28;20102;-28
2024/02/22 09:02:45;;;;;;;28.05;12.73;;;;;;;;;;5113687;28;20024;-29
2024/02/22 09:05:11;;;;;;;29.38;11.55;;;;;;;;;;5116980;28;20051;-29
2024/02/22 09:07:36;;;;;;;24.88;11.95;;;;;;;;;;5117147;28;20442;-28
2024/02/22 09:10:06;;;;;;;22.33;11.57;;;;;;;;;;5117824;28;20008;-29
2024/02/22 09:12:31;;;;;;;26.15;10.32;;;;;;;;;;5117394;28;20254;-29
2024/02/22 09:14:56;;;;;;;19.85;10.13;;;;;;;;;;5117122;28;20023;-29
2024/02/22 09:17:22;;;;;;;19.83;9.90;;;;;;;;;;5117174;28;20019;-29
2024/02/22 09:19:49;;;;;;;16.75;9.30;;;;;;;;;;5118022;28;20298;-29
2024/02/22 09:22:16;;;;;;;17.00;8.57;;;;;;;;;;5117260;28;20394;-29
2024/02/22 09:24:42;;;;;;;17.58;7.75;;;;;;;;;;5116980;28;20467;-30
2024/02/22 09:27:07;;;;;;;14.95;7.50;;;;;;;;;;5116847;28;20108;-29
2024/02/22 09:29:35;;;;;;;11.63;6.70;;;;;;;;;;5116766;28;20053;-29
2024/02/22 09:32:00;;;;;;;10.35;5.70;;;;;;;;;;5117034;28;20022;-29
2024/02/22 09:34:25;;;;;;;10.90;4.97;;;;;;;;;;5116932;28;20019;-29
2024/02/22 09:36:50;;;;;;;9.88;4.57;;;;;;;;;;5116777;28;20282;-29
2024/02/22 09:39:16;;;;;;;7.70;3.90;;;;;;;;;;5116605;28;20441;-30
2024/02/22 09:41:44;;;;;;;7.25;3.50;;;;;;;;;;5115386;28;20107;-30
2024/02/22 09:44:10;;;;;;;6.93;3.40;;;;;;;;;;5114357;28;20102;-30
2024/02/22 09:46:36;;;;;;;6.75;3.30;;;;;;;;;;5114375;28;20012;-30
2024/02/22 09:49:01;;;;;;;7.25;3.20;;;;;;;;;;5114323;28;20508;-29
2024/02/22 09:51:27;;;;;;;6.33;2.90;;;;;;;;;;5114423;28;20007;-30
2024/02/22 09:53:52;;;;;;;4.85;2.60;;;;;;;;;;5095945;28;20043;-29
2024/02/22 09:56:17;;;;;;;3.72;2.40;;;;;;;;;;5114936;28;20026;-29
2024/02/22 09:58:46;;;;;;;4.63;2.37;;;;;;;;;;5116274;28;20421;-29
2024/02/22 10:01:11;;;;;;;4.43;2.50;;;;;;;;;;5116378;28;20016;-29
2024/02/22 10:03:37;;;;;;;4.17;2.17;;;;;;;;;;5116067;28;20521;-29
2024/02/22 10:06:02;;;;;;;2.95;2.13;;;;;;;;;;5116507;28;20462;-29
2024/02/22 10:08:27;;;;;;;5.57;2.70;;;;;;;;;;5116085;28;20015;-29
2024/02/22 10:11:03;;;;;;;5.30;2.60;;;;;;;;;;5116072;28;20502;-29
2024/02/22 10:13:29;;;;;;;3.65;2.25;;;;;;;;;;5116299;28;20260;-30
2024/02/22 10:15:54;;;;;;;4.27;2.60;;;;;;;;;;5116314;28;20028;-29
2024/02/22 10:18:25;;;;;;;5.23;2.63;;;;;;;;;;5115950;28;20076;-29
2024/02/22 10:20:50;;;;;;;4.18;2.63;;;;;;;;;;5115876;28;20485;-29
2024/02/22 10:23:18;;;;;;;4.68;3.10;;;;;;;;;;5116117;28;20023;-29
2024/02/22 10:25:43;;;;;;;3.50;2.60;;;;;;;;;;5115945;28;20451;-29
2024/02/22 10:28:13;;;;;;;5.20;3.23;;;;;;;;;;5116262;28;20023;-28
2024/02/22 10:30:38;;;;;;;4.63;3.28;;;;;;;;;;5115705;28;20079;-32
2024/02/22 10:33:05;;;;;;;4.75;3.28;;;;;;;;;;5116160;28;20015;-28
2024/02/22 10:35:33;;;;;;;5.80;3.20;;;;;;;;;;5115478;28;20092;-28
2024/02/22 10:37:59;;;;;;;6.15;3.10;;;;;;;;;;5115803;28;20081;-28
2024/02/22 10:40:26;;;;;;;8.57;3.15;;;;;;;;;;5115676;28;20019;-28
2024/02/22 10:42:52;;;;;;;4.30;2.90;;;;;;;;;;5115647;28;20387;-28
2024/02/22 10:45:17;;;;;;;5.68;2.85;;;;;;;;;;5115123;28;20022;-28
2024/02/22 10:47:43;;;;;;;4.18;2.90;;;;;;;;;;5114431;28;20016;-29
2024/02/22 10:50:10;;;;;;;4.72;2.65;;;;;;;;;;5115742;28;20034;-28
2024/02/22 10:52:38;;;;;;;4.55;2.40;;;;;;;;;;5115088;28;20026;-28
2024/02/22 10:55:06;;;;;;;3.03;2.15;;;;;;;;;;5115088;28;20024;-28
2024/02/22 10:57:33;;;;;;;2.60;2.20;;;;;;;;;;5115304;28;20023;-28
2024/02/22 10:59:59;;;;;;;3.50;2.10;;;;;;;;;;5115529;28;20022;-28
2024/02/22 11:02:25;;;;;;;2.45;2.00;;;;;;;;;;5115221;28;20019;-28
2024/02/22 11:04:51;;;;;;;2.55;2.00;;;;;;;;;;5114715;28;20035;-29
2024/02/22 11:07:20;;;;;;;4.70;2.00;;;;;;;;;;5114920;28;20011;-28
2024/02/22 11:09:47;;;;;;;1.92;1.70;;;;;;;;;;5115355;28;20031;-29
2024/02/22 11:12:15;;;;;;;4.65;2.10;;;;;;;;;;5115051;28;20409;-28
2024/02/22 11:14:41;;;;;;;2.83;2.00;;;;;;;;;;5115038;28;20447;-28
2024/02/22 11:17:18;;;;;;;2.40;2.03;;;;;;;;;;5114727;28;20093;-29
2024/02/22 11:19:44;;;;;;;3.55;2.25;;;;;;;;;;5114651;28;20020;-28
2024/02/22 11:22:16;;;;;;;3.30;2.33;;;;;;;;;;5115031;28;20022;-29
2024/02/22 11:24:41;;;;;;;5.28;2.30;;;;;;;;;;5114492;28;20044;-28
2024/02/22 11:27:07;;;;;;;3.60;2.50;;;;;;;;;;5113682;28;20051;-29
2024/02/22 11:29:32;;;;;;;3.78;2.97;;;;;;;;;;5114782;28;20012;-28
2024/02/22 11:32:02;;;;;;;3.30;2.72;;;;;;;;;;5114277;28;20045;-28
2024/02/22 11:34:27;;;;;;;3.63;3.05;;;;;;;;;;5114358;28;20015;-29
2024/02/22 11:36:56;;;;;;;6.72;3.25;;;;;;;;;;5114542;28;20083;-29
2024/02/22 11:39:21;;;;;;;4.85;3.58;;;;;;;;;;5115412;28;20436;-28
2024/02/22 11:41:48;;;;;;;5.07;3.60;;;;;;;;;;5114193;28;20016;-29
2024/02/22 11:44:14;;;;;;;5.10;3.90;;;;;;;;;;5114380;28;20463;-28
2024/02/22 11:46:40;;;;;;;5.03;3.80;;;;;;;;;;5114398;28;20020;-28
2024/02/22 11:49:06;;;;;;;6.97;4.07;;;;;;;;;;5114369;28;20028;-28
2024/02/22 11:51:31;;;;;;;6.22;4.53;;;;;;;;;;5114154;28;20054;-28
2024/02/22 11:53:58;;;;;;;5.43;4.38;;;;;;;;;;5114093;28;20023;-28
2024/02/22 11:56:27;;;;;;;5.13;3.70;;;;;;;;;;5113961;28;20076;-28
2024/02/22 11:58:56;;;;;;;6.82;3.75;;;;;;;;;;5113972;28;20016;-29
2024/02/22 12:01:21;;;;;;;4.00;3.35;;;;;;;;;;5113924;28;20027;-29
2024/02/22 12:03:47;;;;;;;4.68;3.55;;;;;;;;;;5113918;28;20054;-28
2024/02/22 12:06:14;;;;;;;4.07;3.10;;;;;;;;;;5113808;28;20031;-29
2024/02/22 12:08:40;;;;;;;4.45;3.00;;;;;;;;;;5095632;28;20110;-29
2024/02/22 12:11:06;;;;;;;5.03;2.80;;;;;;;;;;5113828;28;20047;-28
2024/02/22 12:13:31;;;;;;;4.38;2.97;;;;;;;;;;5113901;28;20012;-28
2024/02/22 12:16:03;;;;;;;3.77;3.10;;;;;;;;;;5113845;28;20015;-28
2024/02/22 12:18:28;;;;;;;5.05;3.00;;;;;;;;;;5114341;28;20272;-28
2024/02/22 12:20:55;;;;;;;3.92;2.90;;;;;;;;;;5114123;28;20028;-28
2024/02/22 12:23:20;;;;;;;3.45;2.65;;;;;;;;;;5114321;28;20020;-28
2024/02/22 12:25:52;;;;;;;3.67;2.50;;;;;;;;;;5113674;28;20030;-28
2024/02/22 12:28:17;;;;;;;3.88;2.92;;;;;;;;;;5113908;28;20016;-28
2024/02/22 12:30:43;;;;;;;4.95;2.78;;;;;;;;;;5113409;28;20473;-29
2024/02/22 12:33:19;;;;;;;3.38;2.58;;;;;;;;;;5114055;28;20018;-28
2024/02/22 12:35:44;;;;;;;5.10;2.47;;;;;;;;;;5113650;28;20432;-28
2024/02/22 12:38:09;;;;;;;3.27;2.60;;;;;;;;;;5116139;28;20015;-29
2024/02/22 12:40:34;;;;;;;3.72;2.67;;;;;;;;;;5118093;28;20122;-28
2024/02/22 12:43:00;;;;;;;5.00;2.50;;;;;;;;;;5117740;28;20023;-28
2024/02/22 12:45:25;;;;;;;4.83;2.47;;;;;;;;;;5118205;28;20051;-28
2024/02/22 12:47:50;;;;;;;4.20;2.80;;;;;;;;;;5118210;28;20018;-29
2024/02/22 12:50:15;;;;;;;3.63;2.37;;;;;;;;;;5117649;28;20016;-30
2024/02/22 12:52:40;;;;;;;3.33;2.23;;;;;;;;;;5117555;28;20329;-29
2024/02/22 12:55:05;;;;;;;3.60;2.30;;;;;;;;;;5117486;28;20266;-28
2024/02/22 12:57:31;;;;;;;4.18;2.42;;;;;;;;;;5118224;28;20293;-29
2024/02/22 12:59:56;;;;;;;3.87;2.47;;;;;;;;;;5117965;28;20027;-29
2024/02/22 13:02:22;;;;;;;4.30;2.10;;;;;;;;;;5099043;28;20764;-29
2024/02/22 13:04:47;;;;;;;2.58;2.10;;;;;;;;;;5117135;28;20136;-29
2024/02/22 13:07:13;;;;;;;2.83;2.10;;;;;;;;;;5118608;28;20015;-29
2024/02/22 13:09:38;;;;;;;2.90;2.30;;;;;;;;;;5117231;28;20038;-29
2024/02/22 13:12:03;;;;;;;3.25;2.00;;;;;;;;;;5117027;28;20024;-30
2024/02/22 13:14:29;;;;;;;3.20;2.20;;;;;;;;;;5117047;28;20024;-28
2024/02/22 13:16:54;;;;;;;6.97;2.17;;;;;;;;;;5117348;28;20443;-29
2024/02/22 13:19:19;;;;;;;3.10;2.10;;;;;;;;;;5117099;28;20435;-28
2024/02/22 13:21:44;;;;;;;2.87;1.97;;;;;;;;;;5116987;28;20103;-28
2024/02/22 13:24:09;;;;;;;3.20;2.00;;;;;;;;;;5117835;28;20310;-28
2024/02/22 13:26:35;;;;;;;4.07;2.20;;;;;;;;;;5116832;28;20374;-28
2024/02/22 13:29:00;;;;;;;2.47;2.00;;;;;;;;;;5098582;28;20269;-29
2024/02/22 13:31:26;;;;;;;3.10;2.10;;;;;;;;;;5116707;28;20027;-28
2024/02/22 13:33:51;;;;;;;2.10;1.90;;;;;;;;;;5116937;28;20265;-29
2024/02/22 13:36:17;;;;;;;2.10;1.80;;;;;;;;;;5098411;28;20379;-28
2024/02/22 13:38:43;;;;;;;2.88;2.00;;;;;;;;;;5098407;28;20033;-28
2024/02/22 13:41:08;;;;;;;2.28;1.80;;;;;;;;;;5116645;28;20022;-29
2024/02/22 13:43:33;;;;;;;3.97;1.95;;;;;;;;;;5116728;28;20023;-29
2024/02/22 13:45:59;;;;;;;2.38;2.00;;;;;;;;;;5117033;28;20048;-29
2024/02/22 13:48:26;;;;;;;1.90;1.70;;;;;;;;;;5115989;28;20015;-29
2024/02/22 13:50:54;;;;;;;2.85;1.90;;;;;;;;;;5116108;28;20018;-28
2024/02/22 13:53:19;;;;;;;2.22;1.70;;;;;;;;;;5116572;28;20027;-28
2024/02/22 13:55:44;;;;;;;2.03;1.60;;;;;;;;;;5116496;28;20030;-28
2024/02/22 13:58:10;;;;;;;3.15;1.55;;;;;;;;;;5116418;28;20273;-28
2024/02/22 14:00:35;;;;;;;4.95;1.80;;;;;;;;;;5116716;28;20027;-30
2024/02/22 14:03:00;;;;;;;3.05;1.70;;;;;;;;;;5116516;28;20032;-28
2024/02/22 14:05:25;;;;;;;1.83;1.60;;;;;;;;;;5116244;28;20032;-29
2024/02/22 14:07:57;;;;;;;2.22;1.80;;;;;;;;;;5116091;28;20012;-29
2024/02/22 14:10:25;;;;;;;2.30;1.70;;;;;;;;;;5116238;28;20091;-29
2024/02/22 14:12:51;;;;;;;1.92;1.70;;;;;;;;;;5116034;28;20061;-28
2024/02/22 14:15:16;;;;;;;2.70;1.70;;;;;;;;;;5115777;28;20096;-28
2024/02/22 14:17:44;;;;;;;2.45;1.70;;;;;;;;;;5115262;28;20022;-28
2024/02/22 14:20:12;;;;;;;1.88;1.63;;;;;;;;;;5115333;28;20023;-29
2024/02/22 14:22:37;;;;;;;1.88;1.52;;;;;;;;;;5115101;28;20137;-29
2024/02/22 14:25:03;;;;;;;1.80;1.40;;;;;;;;;;5114847;28;20099;-28
2024/02/22 14:27:31;;;;;;;2.00;1.60;;;;;;;;;;5114917;28;20466;-29